createdAt,value
2023-03-18T00:00:41.942Z,5.93
2023-03-18T00:03:09.123Z,6.73
2023-03-18T00:05:36.220Z,9.07
2023-03-18T00:08:04.762Z,9.57
2023-03-18T00:10:33.716Z,5.30
2023-03-18T00:13:01.344Z,5.60
2023-03-18T00:15:29.203Z,7.87
2023-03-18T00:17:59.098Z,5.70
2023-03-18T00:20:38.697Z,7.77
2023-03-18T00:23:11.366Z,4.53
2023-03-18T00:25:39.119Z,5.03
2023-03-18T00:28:07.384Z,4.43
2023-03-18T00:30:34.952Z,4.67
2023-03-18T00:33:02.074Z,6.17
2023-03-18T00:35:30.544Z,8.63
2023-03-18T00:38:03.816Z,6.07
2023-03-18T00:40:43.195Z,7.33
2023-03-18T00:43:12.605Z,5.70
2023-03-18T00:45:40.589Z,5.97
2023-03-18T00:48:08.885Z,6.30
2023-03-18T00:50:36.957Z,11.63
2023-03-18T00:53:04.019Z,6.10
2023-03-18T00:55:31.054Z,7.30
2023-03-18T00:57:58.263Z,6.77
2023-03-18T01:00:28.834Z,7.27
2023-03-18T01:02:56.152Z,8.67
2023-03-18T01:05:24.450Z,6.53
2023-03-18T01:07:51.773Z,6.33
2023-03-18T01:10:18.888Z,6.17
2023-03-18T01:12:49.293Z,9.97
2023-03-18T01:15:17.861Z,8.23
2023-03-18T01:17:45.521Z,5.03
2023-03-18T01:20:13.401Z,10.80
2023-03-18T01:22:42.131Z,7.83
2023-03-18T01:25:10.515Z,6.80
2023-03-18T01:27:37.990Z,11.47
2023-03-18T01:30:05.843Z,6.90
2023-03-18T01:32:33.037Z,7.70
2023-03-18T01:35:00.156Z,8.63
2023-03-18T01:37:27.287Z,7.17
2023-03-18T01:39:56.011Z,8.27
2023-03-18T01:42:23.240Z,10.03
2023-03-18T01:44:50.701Z,7.20
2023-03-18T01:47:17.881Z,6.10
2023-03-18T01:49:47.242Z,6.17
2023-03-18T01:52:16.236Z,8.73
2023-03-18T01:54:45.837Z,8.03
2023-03-18T01:57:12.959Z,6.17
2023-03-18T01:59:41.882Z,7.73
2023-03-18T02:02:11.217Z,11.77
2023-03-18T02:04:41.146Z,6.73
2023-03-18T02:07:14.101Z,5.63
2023-03-18T02:09:41.139Z,7.30
2023-03-18T02:12:09.440Z,10.00
2023-03-18T02:14:36.500Z,5.13
2023-03-18T02:17:08.054Z,6.57
2023-03-18T02:19:47.730Z,8.53
2023-03-18T02:22:24.842Z,7.97
2023-03-18T02:25:10.668Z,7.33
2023-03-18T02:27:39.545Z,8.10
2023-03-18T02:30:21.332Z,6.77
2023-03-18T02:32:49.995Z,6.90
2023-03-18T02:35:17.202Z,7.03
2023-03-18T02:37:44.580Z,5.93
2023-03-18T02:40:14.434Z,7.17
2023-03-18T02:42:42.060Z,4.70
2023-03-18T02:45:14.020Z,11.50
2023-03-18T02:47:42.793Z,8.10
2023-03-18T02:50:10.518Z,7.20
2023-03-18T02:52:38.770Z,6.53
2023-03-18T02:55:07.086Z,9.07
2023-03-18T02:57:34.387Z,7.40
2023-03-18T03:00:01.455Z,6.47
2023-03-18T03:02:28.579Z,9.57
2023-03-18T03:04:56.374Z,4.83
2023-03-18T03:07:26.521Z,8.13
2023-03-18T03:09:53.594Z,8.27
2023-03-18T03:12:20.650Z,7.93
2023-03-18T03:14:47.698Z,8.10
2023-03-18T03:17:15.219Z,6.33
2023-03-18T03:19:42.640Z,8.23
2023-03-18T03:22:09.771Z,5.37
2023-03-18T03:24:36.857Z,8.27
2023-03-18T03:27:04.245Z,6.30
2023-03-18T03:29:31.364Z,8.47
2023-03-18T03:31:58.420Z,7.30
2023-03-18T03:34:25.841Z,4.87
2023-03-18T03:36:52.872Z,6.30
2023-03-18T03:39:20.025Z,8.00
2023-03-18T03:41:47.066Z,7.50
2023-03-18T03:44:14.137Z,7.00
2023-03-18T03:46:41.220Z,12.83
2023-03-18T03:49:08.352Z,7.43
2023-03-18T03:51:35.391Z,6.37
2023-03-18T03:54:02.479Z,6.23
2023-03-18T03:56:31.318Z,6.60
2023-03-18T03:59:00.100Z,6.37
2023-03-18T04:01:28.085Z,9.83
2023-03-18T04:03:55.720Z,11.00
2023-03-18T04:06:23.473Z,6.03
2023-03-18T04:08:50.694Z,7.30
2023-03-18T04:11:18.009Z,6.57
2023-03-18T04:13:45.560Z,10.47
2023-03-18T04:16:12.816Z,7.30
2023-03-18T04:18:40.139Z,6.33
2023-03-18T04:21:08.094Z,7.50
2023-03-18T04:23:35.274Z,7.43
2023-03-18T04:26:02.506Z,10.17
2023-03-18T04:28:29.521Z,10.73
2023-03-18T04:30:56.577Z,7.87
2023-03-18T04:33:23.620Z,9.67
2023-03-18T04:35:52.587Z,6.47
2023-03-18T04:38:20.401Z,8.27
2023-03-18T04:40:47.571Z,5.97
2023-03-18T04:43:15.264Z,6.90
2023-03-18T04:45:43.615Z,6.70
2023-03-18T04:48:10.671Z,6.13
2023-03-18T04:50:37.800Z,12.03
2023-03-18T04:53:04.851Z,8.10
2023-03-18T04:55:32.120Z,8.90
2023-03-18T04:57:59.354Z,8.27
2023-03-18T05:00:26.485Z,6.63
2023-03-18T05:02:53.543Z,6.57
2023-03-18T05:05:21.148Z,6.57
2023-03-18T05:07:48.241Z,6.70
2023-03-18T05:10:15.326Z,7.47
2023-03-18T05:12:42.617Z,9.67
2023-03-18T05:15:11.911Z,7.53
2023-03-18T05:17:40.717Z,9.97
2023-03-18T05:20:08.213Z,5.93
2023-03-18T05:22:35.563Z,9.30
2023-03-18T05:25:02.773Z,7.20
2023-03-18T05:27:29.927Z,6.43
2023-03-18T05:29:57.308Z,7.80
2023-03-18T05:32:24.778Z,9.70
2023-03-18T05:34:52.640Z,10.30
2023-03-18T05:37:19.766Z,8.07
2023-03-18T05:39:46.851Z,9.10
2023-03-18T05:42:14.173Z,6.37
2023-03-18T05:44:42.074Z,11.10
2023-03-18T05:47:12.396Z,8.03
2023-03-18T05:49:39.560Z,9.53
2023-03-18T05:52:06.773Z,8.40
2023-03-18T05:54:33.911Z,9.47
2023-03-18T05:57:00.977Z,11.10
2023-03-18T05:59:30.191Z,10.87
2023-03-18T06:01:57.366Z,4.67
2023-03-18T06:04:25.001Z,9.43
2023-03-18T06:06:52.046Z,7.17
2023-03-18T06:09:19.073Z,10.27
2023-03-18T06:11:46.138Z,7.97
2023-03-18T06:14:13.313Z,6.40
2023-03-18T06:16:41.663Z,9.03
2023-03-18T06:19:10.562Z,8.83
2023-03-18T06:21:38.545Z,7.67
2023-03-18T06:24:05.849Z,7.17
2023-03-18T06:26:32.964Z,7.80
2023-03-18T06:29:00.033Z,11.97
2023-03-18T06:31:27.291Z,8.80
2023-03-18T06:33:54.366Z,5.23
2023-03-18T06:36:22.457Z,10.67
2023-03-18T06:38:49.516Z,7.30
2023-03-18T06:41:16.654Z,7.33
2023-03-18T06:43:43.716Z,8.20
2023-03-18T06:46:10.817Z,7.27
2023-03-18T06:48:40.288Z,7.67
2023-03-18T06:51:07.828Z,6.77
2023-03-18T06:53:36.369Z,6.67
2023-03-18T06:56:04.214Z,8.63
2023-03-18T06:58:31.827Z,7.57
2023-03-18T07:00:59.387Z,15.57
2023-03-18T07:03:28.169Z,7.10
2023-03-18T07:05:56.020Z,10.80
2023-03-18T07:08:23.102Z,10.13
2023-03-18T07:10:52.639Z,8.60
2023-03-18T07:13:19.760Z,6.00
2023-03-18T07:15:46.875Z,6.33
2023-03-18T07:18:14.386Z,7.97
2023-03-18T07:20:41.811Z,7.20
2023-03-18T07:23:09.790Z,7.73
2023-03-18T07:25:36.835Z,9.43
2023-03-18T07:28:04.923Z,8.07
2023-03-18T07:30:33.200Z,10.23
2023-03-18T07:33:00.960Z,7.30
2023-03-18T07:35:28.705Z,8.37
2023-03-18T07:37:55.803Z,11.23
2023-03-18T07:40:23.487Z,8.23
2023-03-18T07:42:56.237Z,7.50
2023-03-18T07:45:23.869Z,8.67
2023-03-18T07:47:51.045Z,6.83
2023-03-18T07:50:18.460Z,7.30
2023-03-18T07:52:45.544Z,12.87
2023-03-18T07:55:12.558Z,13.63
2023-03-18T07:57:39.710Z,11.97
2023-03-18T08:00:07.789Z,16.27
2023-03-18T08:02:36.113Z,10.80
2023-03-18T08:05:03.903Z,9.47
2023-03-18T08:07:30.978Z,14.90
2023-03-18T08:09:58.278Z,13.63
2023-03-18T08:12:25.485Z,15.50
2023-03-18T08:14:52.547Z,12.83
2023-03-18T08:17:19.619Z,17.33
2023-03-18T08:19:48.763Z,13.43
2023-03-18T08:22:16.055Z,17.00
2023-03-18T08:24:45.463Z,14.03
2023-03-18T08:27:12.589Z,14.73
2023-03-18T08:29:39.699Z,15.07
2023-03-18T08:32:07.700Z,13.20
2023-03-18T08:34:35.838Z,30.27
2023-03-18T08:37:02.993Z,20.40
2023-03-18T08:39:30.064Z,17.47
2023-03-18T08:41:57.104Z,21.40
2023-03-18T08:44:24.655Z,17.20
2023-03-18T08:46:51.732Z,18.87
2023-03-18T08:49:18.818Z,14.10
2023-03-18T08:51:46.842Z,16.63
2023-03-18T08:54:14.672Z,19.87
2023-03-18T08:56:42.480Z,15.93
2023-03-18T08:59:10.307Z,14.73
2023-03-18T09:01:38.092Z,20.63
2023-03-18T09:04:05.236Z,19.40
2023-03-18T09:06:32.678Z,29.17
2023-03-18T09:08:59.721Z,14.67
2023-03-18T09:11:27.862Z,15.63
2023-03-18T09:13:54.926Z,15.77
2023-03-18T09:16:22.841Z,13.63
2023-03-18T09:18:49.996Z,13.47
2023-03-18T09:21:17.265Z,14.90
2023-03-18T09:23:44.411Z,17.20
2023-03-18T09:26:11.522Z,15.47
2023-03-18T09:28:38.692Z,17.10
2023-03-18T09:31:06.175Z,15.43
2023-03-18T09:33:33.437Z,18.63
2023-03-18T09:36:01.018Z,16.23
2023-03-18T09:38:28.093Z,12.77
2023-03-18T09:41:13.668Z,13.27
2023-03-18T09:43:57.281Z,15.87
2023-03-18T09:46:24.911Z,11.73
2023-03-18T09:49:24.590Z,12.47
2023-03-18T09:52:10.385Z,8.90
2023-03-18T09:54:40.955Z,7.53
2023-03-18T09:57:22.851Z,9.70
2023-03-18T09:59:54.823Z,10.03
2023-03-18T10:02:30.786Z,6.93
2023-03-18T10:04:59.378Z,8.60
2023-03-18T10:07:32.057Z,7.83
2023-03-18T10:10:06.684Z,8.43
2023-03-18T10:12:35.726Z,9.47
2023-03-18T10:15:06.610Z,9.33
2023-03-18T10:17:56.203Z,9.53
2023-03-18T10:20:35.424Z,10.00
2023-03-18T10:23:11.578Z,9.67
2023-03-18T10:25:40.955Z,11.27
2023-03-18T10:28:29.882Z,9.87
2023-03-18T10:31:07.067Z,10.10
2023-03-18T10:34:06.632Z,9.43
2023-03-18T10:36:39.912Z,9.50
2023-03-18T10:39:13.626Z,13.30
2023-03-18T10:41:42.830Z,9.17
2023-03-18T10:44:18.452Z,8.77
2023-03-18T10:46:47.639Z,8.17
2023-03-18T10:49:20.722Z,7.87
2023-03-18T10:51:47.775Z,8.83
2023-03-18T10:54:35.357Z,8.20
2023-03-18T10:57:02.395Z,7.40
2023-03-18T10:59:30.262Z,7.90
2023-03-18T11:02:04.413Z,6.90
2023-03-18T11:04:36.012Z,8.30
2023-03-18T11:07:04.295Z,9.07
2023-03-18T11:09:33.049Z,8.47
2023-03-18T11:12:07.114Z,8.50
2023-03-18T11:14:34.745Z,8.73
2023-03-18T11:17:02.935Z,7.20
2023-03-18T11:19:33.287Z,7.47
2023-03-18T11:22:02.136Z,7.43
2023-03-18T11:24:44.890Z,7.03
2023-03-18T11:27:32.317Z,6.43
2023-03-18T11:30:00.843Z,6.40
2023-03-18T11:32:28.705Z,6.23
2023-03-18T11:35:00.827Z,6.60
2023-03-18T11:37:48.196Z,6.43
2023-03-18T11:40:15.286Z,7.20
2023-03-18T11:42:43.155Z,6.53
2023-03-18T11:45:31.740Z,6.33
2023-03-18T11:47:58.888Z,17.83
2023-03-18T11:50:31.316Z,6.53
2023-03-18T11:53:05.622Z,7.87
2023-03-18T11:55:41.858Z,5.67
2023-03-18T11:58:24.989Z,4.50
2023-03-18T12:00:52.567Z,4.70
2023-03-18T12:03:38.321Z,4.33
2023-03-18T12:06:05.498Z,5.03
2023-03-18T12:08:54.402Z,4.83
2023-03-18T12:11:28.534Z,4.97
2023-03-18T12:13:58.713Z,7.37
2023-03-18T12:16:46.095Z,7.20
2023-03-18T12:19:31.956Z,5.97
2023-03-18T12:22:17.716Z,5.77
2023-03-18T12:24:45.397Z,4.63
2023-03-18T12:27:16.871Z,4.70
2023-03-18T12:29:53.585Z,7.17
2023-03-18T12:32:31.454Z,7.03
2023-03-18T12:35:02.575Z,6.70
2023-03-18T12:37:41.853Z,5.03
2023-03-18T12:40:21.292Z,12.67
2023-03-18T12:42:57.628Z,5.10
2023-03-18T12:45:27.425Z,4.97
2023-03-18T12:48:02.293Z,3.93
2023-03-18T12:50:50.096Z,4.77
2023-03-18T12:53:17.164Z,3.10
2023-03-18T12:55:49.211Z,3.53
2023-03-18T12:58:21.883Z,3.03
2023-03-18T13:00:52.308Z,2.93
2023-03-18T13:03:26.243Z,3.37
2023-03-18T13:06:01.193Z,4.00
2023-03-18T13:08:46.804Z,3.20
2023-03-18T13:11:32.947Z,3.60
2023-03-18T13:14:03.612Z,3.60
2023-03-18T13:16:32.256Z,3.40
2023-03-18T13:19:00.233Z,4.33
2023-03-18T13:21:30.526Z,4.10
2023-03-18T13:23:57.590Z,3.43
2023-03-18T13:26:30.643Z,17.77
2023-03-18T13:28:58.801Z,6.70
2023-03-18T13:31:31.876Z,12.53
2023-03-18T13:34:14.322Z,10.27
2023-03-18T13:36:59.907Z,10.67
2023-03-18T13:39:35.632Z,16.30
2023-03-18T13:42:05.892Z,4.03
2023-03-18T13:44:53.232Z,6.90
2023-03-18T13:47:22.020Z,3.87
2023-03-18T13:49:49.396Z,4.70
2023-03-18T13:52:25.069Z,2.30
2023-03-18T13:54:52.258Z,2.33
2023-03-18T13:57:33.441Z,3.23
2023-03-18T14:00:18.743Z,4.07
2023-03-18T14:02:47.951Z,3.63
2023-03-18T14:05:36.054Z,3.60
2023-03-18T14:08:07.272Z,2.23
2023-03-18T14:10:34.422Z,2.83
2023-03-18T14:13:21.425Z,2.60
2023-03-18T14:15:48.489Z,2.70
2023-03-18T14:18:19.518Z,4.10
2023-03-18T14:20:47.704Z,4.03
2023-03-18T14:23:29.893Z,3.83
2023-03-18T14:26:04.482Z,3.17
2023-03-18T14:28:42.662Z,2.70
2023-03-18T14:31:15.867Z,4.00
2023-03-18T14:33:51.125Z,2.63
2023-03-18T14:36:18.843Z,3.50
2023-03-18T14:38:47.980Z,13.00
2023-03-18T14:41:23.176Z,8.83
2023-03-18T14:44:09.093Z,4.60
2023-03-18T14:46:41.502Z,2.67
2023-03-18T14:49:27.448Z,5.17
2023-03-18T14:51:54.828Z,5.53
2023-03-18T14:54:24.438Z,2.90
2023-03-18T14:56:56.567Z,8.87
2023-03-18T14:59:26.405Z,8.67
2023-03-18T15:01:55.372Z,5.67
2023-03-18T15:04:26.756Z,7.13
2023-03-18T15:06:55.244Z,11.43
2023-03-18T15:09:34.805Z,10.60
2023-03-18T15:12:15.961Z,3.77
2023-03-18T15:14:43.044Z,5.80
2023-03-18T15:17:15.987Z,5.47
2023-03-18T15:19:43.713Z,11.40
2023-03-18T15:22:15.682Z,7.83
2023-03-18T15:24:42.752Z,2.60
2023-03-18T15:27:18.610Z,3.03
2023-03-18T15:29:52.576Z,2.97
2023-03-18T15:32:27.278Z,6.30
2023-03-18T15:34:56.052Z,2.70
2023-03-18T15:37:40.520Z,4.33
2023-03-18T15:40:18.104Z,2.87
2023-03-18T15:42:45.744Z,2.80
2023-03-18T15:45:18.893Z,2.50
2023-03-18T15:47:46.155Z,3.83
2023-03-18T15:50:16.215Z,3.53
2023-03-18T15:52:43.597Z,3.20
2023-03-18T15:55:29.195Z,3.13
2023-03-18T15:57:57.341Z,3.53
2023-03-18T16:00:24.730Z,3.17
2023-03-18T16:02:52.084Z,3.27
2023-03-18T16:05:20.693Z,3.70
2023-03-18T16:07:47.957Z,3.60
2023-03-18T16:10:20.451Z,4.63
2023-03-18T16:12:47.736Z,5.10
2023-03-18T16:15:16.847Z,6.17
2023-03-18T16:17:43.950Z,8.07
2023-03-18T16:20:24.509Z,8.87
2023-03-18T16:22:52.041Z,9.67
2023-03-18T16:25:19.581Z,9.00
2023-03-18T16:27:48.629Z,8.10
2023-03-18T16:30:20.475Z,7.30
2023-03-18T16:32:47.743Z,9.47
2023-03-18T16:35:18.025Z,6.93
2023-03-18T16:37:45.468Z,6.30
2023-03-18T16:40:20.344Z,6.80
2023-03-18T16:42:47.961Z,8.83
2023-03-18T16:45:16.992Z,8.40
2023-03-18T16:47:45.902Z,7.63
2023-03-18T16:50:23.150Z,7.63
2023-03-18T16:52:50.651Z,8.23
2023-03-18T16:55:19.345Z,7.77
2023-03-18T16:57:52.672Z,7.53
2023-03-18T17:00:22.768Z,7.77
2023-03-18T17:02:52.430Z,7.70
2023-03-18T17:05:20.996Z,8.67
2023-03-18T17:07:48.420Z,8.27
2023-03-18T17:10:17.201Z,7.87
2023-03-18T17:12:49.187Z,7.93
2023-03-18T17:15:17.778Z,8.83
2023-03-18T17:17:44.869Z,7.53
2023-03-18T17:20:16.594Z,7.70
2023-03-18T17:22:49.968Z,10.23
2023-03-18T17:25:17.450Z,8.33
2023-03-18T17:27:49.753Z,8.27
2023-03-18T17:30:17.098Z,7.80
2023-03-18T17:32:46.082Z,7.43
2023-03-18T17:35:14.734Z,8.13
2023-03-18T17:37:42.196Z,8.67
2023-03-18T17:40:10.802Z,9.03
2023-03-18T17:42:37.908Z,8.80
2023-03-18T17:45:17.107Z,9.47
2023-03-18T17:47:44.220Z,9.17
2023-03-18T17:50:15.658Z,9.97
2023-03-18T17:52:42.818Z,9.30
2023-03-18T17:55:22.477Z,9.90
2023-03-18T17:57:51.499Z,10.60
2023-03-18T18:00:21.366Z,10.73
2023-03-18T18:02:49.031Z,11.93
2023-03-18T18:05:16.990Z,11.70
2023-03-18T18:07:47.704Z,14.07
2023-03-18T18:10:16.370Z,13.30
2023-03-18T18:12:44.750Z,12.90
2023-03-18T18:15:18.239Z,14.50
2023-03-18T18:17:46.302Z,15.13
2023-03-18T18:20:15.242Z,14.90
2023-03-18T18:22:44.530Z,13.87
2023-03-18T18:25:16.688Z,13.60
2023-03-18T18:27:43.849Z,15.37
2023-03-18T18:30:17.986Z,15.57
2023-03-18T18:32:45.874Z,15.73
2023-03-18T18:35:15.558Z,15.17
2023-03-18T18:37:42.845Z,15.73
2023-03-18T18:40:10.935Z,15.40
2023-03-18T18:42:40.861Z,15.00
2023-03-18T18:45:09.640Z,17.23
2023-03-18T18:47:37.452Z,15.47
2023-03-18T18:50:05.839Z,16.37
2023-03-18T18:52:33.995Z,16.47
2023-03-18T18:55:01.237Z,17.27
2023-03-18T18:57:33.267Z,17.30
2023-03-18T19:00:00.424Z,15.67
2023-03-18T19:02:27.461Z,17.43
2023-03-18T19:04:54.792Z,17.43
2023-03-18T19:07:22.768Z,17.30
2023-03-18T19:09:50.415Z,17.70
2023-03-18T19:12:20.958Z,17.90
2023-03-18T19:14:48.700Z,18.90
2023-03-18T19:17:16.934Z,19.80
2023-03-18T19:19:44.810Z,19.47
2023-03-18T19:22:16.198Z,18.73
2023-03-18T19:24:43.812Z,18.87
2023-03-18T19:27:16.432Z,18.97
2023-03-18T19:29:43.906Z,19.93
2023-03-18T19:32:16.146Z,19.13
2023-03-18T19:34:46.027Z,19.87
2023-03-18T19:37:17.933Z,19.30
2023-03-18T19:39:47.529Z,19.10
2023-03-18T19:42:16.184Z,18.80
2023-03-18T19:44:44.134Z,18.63
2023-03-18T19:47:27.617Z,19.23
2023-03-18T19:49:55.085Z,19.07
2023-03-18T19:52:24.067Z,20.60
2023-03-18T19:54:52.106Z,19.20
2023-03-18T19:57:21.320Z,18.03
2023-03-18T19:59:49.011Z,17.80
2023-03-18T20:02:21.937Z,16.50
2023-03-18T20:04:54.898Z,16.90
2023-03-18T20:07:25.910Z,16.77
2023-03-18T20:09:53.642Z,16.50
2023-03-18T20:12:37.790Z,15.60
2023-03-18T20:15:11.513Z,17.10
2023-03-18T20:17:40.928Z,19.80
2023-03-18T20:20:14.588Z,18.27
2023-03-18T20:22:47.993Z,18.40
2023-03-18T20:25:20.218Z,17.67
2023-03-18T20:27:49.431Z,18.70
2023-03-18T20:30:37.278Z,19.13
2023-03-18T20:33:05.932Z,18.67
2023-03-18T20:35:34.786Z,18.40
2023-03-18T20:38:06.733Z,17.77
2023-03-18T20:40:34.823Z,19.10
2023-03-18T20:43:10.624Z,19.27
2023-03-18T20:45:38.610Z,18.80
2023-03-18T20:48:06.794Z,20.00
2023-03-18T20:50:40.947Z,18.90
2023-03-18T20:53:15.218Z,20.57
2023-03-18T20:55:50.117Z,19.87
2023-03-18T20:58:18.625Z,21.20
2023-03-18T21:00:47.005Z,21.33
2023-03-18T21:03:33.773Z,22.53
2023-03-18T21:06:03.226Z,21.33
2023-03-18T21:08:32.014Z,21.43
2023-03-18T21:11:01.887Z,22.50
2023-03-18T21:13:35.457Z,22.17
2023-03-18T21:16:03.606Z,21.63
2023-03-18T21:18:30.757Z,24.07
2023-03-18T21:20:57.980Z,21.83
2023-03-18T21:23:28.730Z,21.17
2023-03-18T21:25:56.533Z,22.57
2023-03-18T21:28:25.566Z,21.13
2023-03-18T21:30:56.197Z,20.73
2023-03-18T21:33:28.021Z,21.93
2023-03-18T21:36:03.954Z,23.23
2023-03-18T21:38:35.829Z,26.10
2023-03-18T21:41:03.303Z,28.37
2023-03-18T21:43:33.035Z,26.23
2023-03-18T21:46:00.885Z,28.67
2023-03-18T21:48:33.376Z,28.57
2023-03-18T21:51:01.630Z,28.07
2023-03-18T21:53:29.287Z,29.23
2023-03-18T21:55:56.388Z,27.03
2023-03-18T21:58:26.443Z,26.77
2023-03-18T22:00:54.681Z,24.00
2023-03-18T22:03:23.341Z,23.50
2023-03-18T22:05:52.128Z,24.17
2023-03-18T22:08:20.197Z,25.27
2023-03-18T22:10:57.022Z,28.70
2023-03-18T22:13:25.278Z,24.67
2023-03-18T22:15:56.624Z,23.57
2023-03-18T22:18:24.250Z,24.40
2023-03-18T22:20:51.938Z,23.07
2023-03-18T22:23:26.340Z,24.03
2023-03-18T22:25:57.479Z,23.97
2023-03-18T22:28:33.586Z,24.17
2023-03-18T22:31:07.192Z,23.23
2023-03-18T22:33:34.570Z,24.30
2023-03-18T22:36:01.972Z,23.37
2023-03-18T22:38:29.274Z,24.63
2023-03-18T22:40:57.079Z,23.47
2023-03-18T22:43:50.246Z,23.50
2023-03-18T22:46:17.949Z,23.27
2023-03-18T22:48:45.110Z,23.97
2023-03-18T22:51:28.973Z,26.03
2023-03-18T22:53:56.158Z,33.30
2023-03-18T22:56:23.499Z,33.90
2023-03-18T22:58:53.128Z,34.27
2023-03-18T23:01:47.124Z,34.20
2023-03-18T23:04:14.308Z,35.90
2023-03-18T23:06:41.903Z,36.87
2023-03-18T23:09:10.429Z,41.10
2023-03-18T23:11:37.505Z,39.90
2023-03-18T23:14:04.597Z,38.93
2023-03-18T23:16:31.647Z,36.00
2023-03-18T23:18:59.214Z,36.53
2023-03-18T23:21:33.150Z,34.43
2023-03-18T23:24:00.191Z,33.30
2023-03-18T23:26:27.319Z,35.30
2023-03-18T23:28:54.361Z,33.73
2023-03-18T23:31:21.438Z,32.27
2023-03-18T23:33:48.593Z,32.30
2023-03-18T23:36:16.015Z,32.03
2023-03-18T23:38:43.118Z,31.80
2023-03-18T23:41:10.323Z,30.47
2023-03-18T23:43:37.364Z,30.00
2023-03-18T23:46:04.496Z,28.17
2023-03-18T23:48:31.759Z,26.67
2023-03-18T23:50:58.801Z,26.93
2023-03-18T23:53:26.111Z,27.50
2023-03-18T23:55:53.154Z,30.50
2023-03-18T23:58:20.266Z,27.13
